Time;durP1;ratioP1;P1;durP2;ratioP2;P2;SDS_P1;SDS_P2;PMS_P1;PMS_P2;Temp;Humidity;BMP_temperature;BMP_pressure;BME280_temperature;BME280_humidity;BME280_pressure;Samples;Min_cycle;Max_cycle;Signal;HPM_P1;HPM_P2
2023/01/18 00:02:25;;;;;;;1.02;0.75;;;9.70;60.10;;;;;;6237761;28;20033;-69
2023/01/18 00:05:26;;;;;;;4.70;1.10;;;9.70;60.30;;;;;;6224729;28;20036;-70
2023/01/18 00:08:28;;;;;;;1.52;0.98;;;9.70;60.30;;;;;;6225910;28;20068;-69
2023/01/18 00:11:29;;;;;;;0.55;0.55;;;9.70;60.40;;;;;;6226078;28;20030;-69
2023/01/18 00:14:30;;;;;;;2.05;0.88;;;9.70;60.40;;;;;;6226149;28;20026;-70
2023/01/18 00:17:31;;;;;;;1.88;1.08;;;9.70;60.60;;;;;;6224556;28;20133;-69
2023/01/18 00:20:32;;;;;;;2.53;1.52;;;9.60;60.50;;;;;;6224578;28;20104;-70
2023/01/18 00:23:33;;;;;;;3.72;1.67;;;9.60;60.70;;;;;;6225799;28;20034;-72
2023/01/18 00:26:34;;;;;;;3.28;1.88;;;9.60;60.90;;;;;;6224878;28;20110;-72
2023/01/18 00:29:35;;;;;;;4.65;2.28;;;9.60;61.10;;;;;;6207901;28;20419;-70
2023/01/18 00:32:36;;;;;;;5.15;2.20;;;9.60;61.20;;;;;;6225620;28;20071;-71
2023/01/18 00:35:37;;;;;;;4.13;1.80;;;9.60;61.40;;;;;;6225774;28;20018;-71
2023/01/18 00:38:38;;;;;;;2.25;1.38;;;9.60;61.40;;;;;;6207378;28;20080;-71
2023/01/18 00:43:37;;;;;;;4.35;1.88;;;9.50;61.40;;;;;;6225287;28;20504;-69
2023/01/18 00:45:00;;;;;;;3.10;1.65;;;9.50;62.30;;;;;;6225261;28;20504;-70
2023/01/18 00:48:01;;;;;;;1.65;1.30;;;9.50;61.70;;;;;;6225063;28;20038;-70
2023/01/18 00:51:02;;;;;;;3.17;1.67;;;9.50;61.80;;;;;;6240549;28;20037;-70
2023/01/18 00:54:03;;;;;;;3.50;1.77;;;9.50;61.60;;;;;;6231043;28;20432;-71
2023/01/18 00:57:04;;;;;;;2.28;1.60;;;9.50;61.50;;;;;;6249575;28;20116;-71
2023/01/18 01:00:14;;;;;;;3.85;1.67;;;9.50;61.60;;;;;;6251252;28;20113;-70
2023/01/18 01:03:15;;;;;;;2.67;1.55;;;9.50;61.80;;;;;;6249915;28;20060;-70
2023/01/18 01:09:39;;;;;;;5.10;2.60;;;9.50;61.80;;;;;;6248947;28;20091;-71
2023/01/18 01:26:07;;;;;;;2.08;1.33;;;9.50;61.70;;;;;;6248812;28;20038;-70
2023/01/18 01:29:08;;;;;;;4.13;1.63;;;9.60;61.70;;;;;;6247440;28;20524;-69
2023/01/18 01:32:10;;;;;;;3.80;1.77;;;9.60;61.60;;;;;;6248753;28;20022;-70
2023/01/18 01:35:11;;;;;;;2.30;1.55;;;9.70;61.70;;;;;;6251314;28;20040;-70
2023/01/18 01:38:12;;;;;;;6.53;2.42;;;9.70;61.60;;;;;;6253316;28;20025;-70
2023/01/18 01:41:19;;;;;;;6.57;2.00;;;9.70;61.50;;;;;;6248069;28;20103;-71
2023/01/18 01:44:20;;;;;;;1.85;1.45;;;9.70;61.50;;;;;;6247715;28;20135;-71
2023/01/18 01:47:27;;;;;;;3.20;1.58;;;9.70;61.40;;;;;;6237765;28;20394;-69
2023/01/18 01:50:35;;;;;;;2.83;1.92;;;9.70;61.50;;;;;;6222534;28;20121;-71
2023/01/18 01:53:37;;;;;;;2.92;1.52;;;9.70;61.60;;;;;;6222360;28;20036;-70
2023/01/18 01:56:39;;;;;;;3.50;1.63;;;9.70;61.60;;;;;;6223555;28;20497;-69
2023/01/18 01:59:45;;;;;;;2.85;1.48;;;9.70;61.70;;;;;;6221902;28;20104;-72
2023/01/18 02:02:52;;;;;;;4.70;1.92;;;9.70;61.70;;;;;;6224082;28;20061;-71
2023/01/18 02:06:00;;;;;;;4.60;1.88;;;9.80;61.80;;;;;;6222149;28;20513;-71
2023/01/18 02:09:05;;;;;;;3.78;1.90;;;9.80;61.70;;;;;;6221932;28;20135;-69
2023/01/18 02:12:06;;;;;;;2.55;1.60;;;9.90;61.70;;;;;;6222037;28;20455;-70
2023/01/18 02:15:08;;;;;;;1.95;1.38;;;9.80;61.60;;;;;;6223543;28;20037;-72
2023/01/18 02:18:21;;;;;;;5.53;2.63;;;9.80;61.60;;;;;;6222914;28;20026;-70
2023/01/18 02:21:35;;;;;;;3.03;1.63;;;9.70;61.80;;;;;;6221890;28;20176;-71
2023/01/18 02:25:11;;;;;;;4.18;2.33;;;9.70;62.00;;;;;;6222160;28;20026;-72
2023/01/18 02:28:21;;;;;;;4.75;2.05;;;9.60;62.10;;;;;;6223157;28;20044;-70
2023/01/18 02:31:27;;;;;;;7.47;1.60;;;9.60;62.10;;;;;;6246153;28;20057;-72
2023/01/18 02:34:38;;;;;;;4.57;2.33;;;9.60;62.30;;;;;;6246306;28;20022;-71
2023/01/18 02:37:57;;;;;;;7.05;1.63;;;9.60;62.30;;;;;;6247313;28;20025;-70
2023/01/18 02:41:07;;;;;;;3.75;2.08;;;9.60;62.30;;;;;;6246205;28;20033;-72
2023/01/18 02:47:29;;;;;;;3.50;1.90;;;9.60;62.40;;;;;;6237922;28;20068;-70
2023/01/18 02:50:30;;;;;;;5.07;2.13;;;9.60;62.60;;;;;;6222732;28;20519;-72
2023/01/18 02:53:35;;;;;;;3.35;1.75;;;9.60;62.60;;;;;;6222876;28;20429;-70
2023/01/18 02:56:50;;;;;;;3.58;2.03;;;9.60;62.70;;;;;;6244669;28;20473;-71
2023/01/18 02:59:53;;;;;;;5.38;2.22;;;9.60;62.90;;;;;;6246862;28;20022;-69
2023/01/18 03:02:57;;;;;;;3.97;2.03;;;9.50;62.90;;;;;;6229466;28;20468;-71
2023/01/18 03:06:00;;;;;;;3.20;1.60;;;9.50;63.00;;;;;;6245613;28;20049;-72
2023/01/18 03:09:02;;;;;;;5.95;1.95;;;9.50;63.20;;;;;;6228981;28;20108;-70
2023/01/18 03:12:23;;;;;;;7.20;2.17;;;9.50;63.40;;;;;;6228928;28;20091;-68
2023/01/18 03:15:33;;;;;;;5.60;1.83;;;9.40;63.40;;;;;;6246872;28;20046;-70
2023/01/18 03:18:59;;;;;;;5.32;1.70;;;9.40;63.60;;;;;;6245359;28;20094;-69
2023/01/18 03:22:01;;;;;;;3.70;1.65;;;9.40;63.80;;;;;;6246856;28;20025;-69
2023/01/18 03:25:02;;;;;;;2.42;1.67;;;9.40;63.80;;;;;;6247031;28;20033;-70
2023/01/18 03:35:15;;;;;;;1.05;0.90;;;9.30;63.80;;;;;;6266255;28;20030;-69
2023/01/18 03:38:16;;;;;;;0.45;0.30;;;9.20;63.90;;;;;;6253780;28;20033;-70
2023/01/18 03:41:20;;;;;;;0.30;0.20;;;9.10;63.80;;;;;;6251852;28;20075;-72
2023/01/18 03:44:32;;;;;;;0.28;0.28;;;9.00;63.60;;;;;;6251584;28;20463;-71
2023/01/18 03:47:34;;;;;;;0.10;0.10;;;8.90;63.70;;;;;;6249763;28;20037;-71
2023/01/18 03:51:10;;;;;;;0.08;0.08;;;8.90;63.80;;;;;;6250955;28;20057;-70
2023/01/18 03:54:22;;;;;;;0.70;0.10;;;8.90;63.70;;;;;;6250536;28;20021;-69
2023/01/18 03:57:44;;;;;;;2.10;0.20;;;8.90;63.60;;;;;;6251000;28;20367;-70
2023/01/18 04:00:45;;;;;;;0.22;0.20;;;8.90;63.40;;;;;;6232836;28;20429;-72
2023/01/18 04:03:46;;;;;;;0.30;0.20;;;8.80;63.20;;;;;;6249873;28;20132;-70
2023/01/18 04:06:46;;;;;;;0.65;0.40;;;8.80;64.10;;;;;;6249479;28;20030;-69
2023/01/18 04:09:47;;;;;;;0.20;0.17;;;8.80;63.40;;;;;;6249291;28;20390;-69
2023/01/18 04:12:48;;;;;;;3.08;0.32;;;8.80;63.40;;;;;;6250368;28;20394;-71
2023/01/18 04:15:49;;;;;;;0.63;0.30;;;8.90;63.30;;;;;;6249311;28;20085;-70
2023/01/18 04:18:51;;;;;;;1.20;0.30;;;8.90;63.20;;;;;;6232311;28;20025;-70
2023/01/18 04:21:52;;;;;;;0.43;0.35;;;8.90;63.00;;;;;;6250312;28;20108;-71
2023/01/18 04:24:53;;;;;;;0.85;0.30;;;8.90;63.30;;;;;;6250152;28;20039;-70
2023/01/18 04:27:54;;;;;;;0.75;0.20;;;8.90;62.80;;;;;;6249977;28;20034;-70
2023/01/18 04:30:55;;;;;;;0.55;0.28;;;8.90;62.80;;;;;;6248736;28;20038;-71
2023/01/18 04:33:56;;;;;;;0.50;0.40;;;8.90;62.80;;;;;;6250086;28;20028;-72
2023/01/18 04:36:58;;;;;;;0.30;0.15;;;8.80;62.80;;;;;;6250027;28;20021;-72
2023/01/18 04:40:00;;;;;;;0.13;0.13;;;8.80;62.80;;;;;;6249817;28;20116;-72
2023/01/18 04:43:01;;;;;;;0.40;0.30;;;8.80;62.90;;;;;;6248714;28;20068;-68
2023/01/18 04:46:02;;;;;;;0.28;0.28;;;8.80;63.00;;;;;;6248622;28;20030;-71
2023/01/18 04:49:14;;;;;;;0.63;0.38;;;8.80;63.20;;;;;;6249166;28;20355;-72
2023/01/18 04:52:15;;;;;;;3.03;0.50;;;8.80;63.20;;;;;;6249577;28;20045;-70
2023/01/18 04:55:16;;;;;;;0.63;0.38;;;8.70;63.20;;;;;;6248258;28;20099;-71
2023/01/18 04:58:17;;;;;;;0.73;0.40;;;8.70;63.40;;;;;;6249267;28;20025;-71
2023/01/18 05:01:18;;;;;;;3.05;1.70;;;8.70;63.50;;;;;;6248293;28;20033;-70
2023/01/18 05:04:20;;;;;;;3.88;2.40;;;8.70;63.80;;;;;;6231513;28;20036;-73
2023/01/18 05:07:24;;;;;;;2.05;1.52;;;8.60;63.90;;;;;;6231712;28;20033;-71
2023/01/18 05:10:25;;;;;;;3.25;1.95;;;8.60;64.20;;;;;;6247996;28;20105;-68
2023/01/18 05:13:26;;;;;;;4.53;1.42;;;8.60;64.30;;;;;;6249247;28;20068;-69
2023/01/18 05:16:26;;;;;;;1.27;0.93;;;8.70;64.50;;;;;;6249393;28;20030;-69
2023/01/18 05:19:29;;;;;;;1.83;1.08;;;8.60;64.50;;;;;;6247850;28;20030;-71
2023/01/18 05:22:31;;;;;;;1.55;1.08;;;8.70;64.60;;;;;;6249010;28;20029;-70
2023/01/18 05:25:32;;;;;;;1.48;0.98;;;8.70;65.40;;;;;;6247597;28;20053;-71
2023/01/18 05:28:33;;;;;;;1.25;0.77;;;8.80;64.50;;;;;;6247496;28;20033;-70
2023/01/18 05:31:34;;;;;;;2.10;1.20;;;8.80;64.30;;;;;;6247217;28;20052;-72
2023/01/18 05:34:35;;;;;;;3.15;1.27;;;8.80;64.10;;;;;;6249029;28;20474;-72
2023/01/18 05:37:36;;;;;;;3.28;1.52;;;8.80;64.20;;;;;;6249801;28;20036;-71
2023/01/18 05:40:37;;;;;;;2.47;1.48;;;8.80;64.30;;;;;;6252036;28;20036;-70
2023/01/18 05:43:38;;;;;;;2.60;1.50;;;8.80;64.30;;;;;;6249752;28;20087;-69
2023/01/18 05:46:39;;;;;;;3.85;2.17;;;8.80;64.20;;;;;;6247339;28;20474;-70
2023/01/18 05:49:40;;;;;;;3.85;1.90;;;8.80;64.20;;;;;;6248021;28;20060;-71
2023/01/18 05:52:41;;;;;;;4.55;2.25;;;8.80;64.30;;;;;;6246676;28;20033;-72
2023/01/18 05:55:43;;;;;;;2.17;1.63;;;8.80;64.20;;;;;;6247929;28;20030;-71
2023/01/18 05:58:44;;;;;;;2.60;1.80;;;8.90;64.30;;;;;;6247939;28;20095;-71
2023/01/18 06:01:45;;;;;;;3.78;1.63;;;8.90;64.40;;;;;;6246688;28;20125;-70
2023/01/18 06:04:46;;;;;;;3.17;1.52;;;8.80;64.30;;;;;;6248896;28;20036;-70
2023/01/18 06:07:47;;;;;;;1.63;1.52;;;8.80;64.10;;;;;;6256830;28;20048;-69
2023/01/18 06:10:57;;;;;;;2.13;1.40;;;8.80;64.10;;;;;;6261493;28;20033;-71
2023/01/18 06:13:58;;;;;;;2.42;1.73;;;8.70;64.00;;;;;;6248653;28;20331;-71
2023/01/18 06:17:00;;;;;;;1.60;1.23;;;8.70;64.10;;;;;;6248119;28;20474;-71
2023/01/18 06:20:01;;;;;;;3.35;1.98;;;8.70;64.20;;;;;;6246059;28;20061;-72
2023/01/18 06:23:02;;;;;;;1.58;1.30;;;8.60;64.10;;;;;;6246364;28;20118;-70
2023/01/18 06:26:03;;;;;;;2.92;1.60;;;8.70;64.20;;;;;;6247406;28;20037;-72
2023/01/18 06:29:04;;;;;;;2.05;1.52;;;8.70;64.20;;;;;;6247076;28;20108;-72
2023/01/18 06:32:05;;;;;;;3.72;1.92;;;8.70;64.10;;;;;;6246766;28;20035;-73
2023/01/18 06:35:07;;;;;;;1.70;1.08;;;8.80;64.00;;;;;;6247319;28;20117;-71
2023/01/18 06:38:08;;;;;;;2.90;1.50;;;8.80;63.70;;;;;;6246960;28;20029;-71
2023/01/18 06:41:09;;;;;;;1.75;1.60;;;8.80;63.80;;;;;;6246060;28;20091;-70
2023/01/18 06:44:10;;;;;;;3.10;1.38;;;8.80;63.70;;;;;;6246140;28;20037;-71
2023/01/18 06:47:11;;;;;;;2.22;1.40;;;8.80;63.60;;;;;;6247110;28;20032;-72
2023/01/18 06:50:12;;;;;;;2.75;1.50;;;8.80;63.50;;;;;;6245603;28;20036;-73
2023/01/18 06:53:12;;;;;;;2.55;1.63;;;8.90;63.60;;;;;;6246751;28;20029;-72
2023/01/18 06:56:13;;;;;;;2.92;2.08;;;8.80;63.60;;;;;;6245698;28;20038;-71
2023/01/18 06:59:15;;;;;;;2.45;1.85;;;8.80;63.70;;;;;;6246663;28;20499;-72
2023/01/18 07:02:16;;;;;;;8.15;2.22;;;8.80;63.70;;;;;;6246355;28;20346;-72
2023/01/18 07:05:17;;;;;;;2.00;1.55;;;8.90;63.70;;;;;;6245582;28;20037;-71
2023/01/18 07:08:19;;;;;;;5.10;2.70;;;8.90;63.70;;;;;;6245062;28;20168;-72
2023/01/18 07:11:20;;;;;;;3.25;1.95;;;8.90;63.60;;;;;;6246664;28;20026;-71
2023/01/18 07:14:21;;;;;;;1.83;1.48;;;8.90;63.50;;;;;;6248679;28;20076;-71
2023/01/18 07:17:22;;;;;;;7.55;3.00;;;8.90;63.50;;;;;;6233690;28;20470;-73
2023/01/18 07:20:23;;;;;;;3.75;2.75;;;8.90;63.70;;;;;;6249834;28;20057;-71
2023/01/18 07:23:25;;;;;;;6.95;2.90;;;8.90;63.70;;;;;;6250271;28;20029;-71
2023/01/18 07:26:26;;;;;;;4.93;2.13;;;8.90;63.80;;;;;;6249926;28;20374;-72
2023/01/18 07:29:27;;;;;;;3.47;2.28;;;8.90;63.80;;;;;;6233047;28;20034;-73
2023/01/18 07:32:28;;;;;;;2.67;1.80;;;8.90;63.70;;;;;;6251232;28;20034;-73
2023/01/18 07:35:29;;;;;;;3.55;2.38;;;8.90;63.50;;;;;;6249795;28;20025;-71
2023/01/18 07:38:31;;;;;;;13.52;3.90;;;8.90;63.60;;;;;;6250750;28;20125;-73
2023/01/18 07:41:32;;;;;;;10.10;3.35;;;8.90;63.80;;;;;;6250311;28;20422;-73
2023/01/18 07:44:33;;;;;;;5.13;2.30;;;8.90;63.90;;;;;;6249546;28;20095;-71
2023/01/18 07:47:35;;;;;;;3.00;1.63;;;8.90;63.80;;;;;;6249155;28;20113;-71
2023/01/18 07:50:36;;;;;;;7.55;3.20;;;8.90;63.80;;;;;;6232605;28;20084;-71
2023/01/18 07:53:38;;;;;;;7.03;2.38;;;8.90;63.90;;;;;;6249064;28;20038;-72
2023/01/18 07:56:39;;;;;;;3.85;2.10;;;9.00;63.80;;;;;;6249392;28;20048;-70
2023/01/18 07:59:40;;;;;;;3.75;2.30;;;9.00;63.80;;;;;;6250029;28;20029;-69
2023/01/18 08:02:41;;;;;;;3.28;1.88;;;9.00;63.70;;;;;;6249344;28;20076;-72
2023/01/18 08:05:46;;;;;;;5.50;1.83;;;9.00;63.70;;;;;;6249651;28;20049;-71
2023/01/18 08:08:47;;;;;;;8.20;2.75;;;9.10;63.70;;;;;;6250147;28;20036;-72
2023/01/18 08:11:47;;;;;;;6.45;3.53;;;9.10;63.70;;;;;;6249120;28;20041;-71
2023/01/18 08:14:48;;;;;;;5.75;3.08;;;9.10;63.60;;;;;;6248806;28;20116;-70
2023/01/18 08:17:50;;;;;;;3.30;2.17;;;9.10;63.70;;;;;;6231962;28;20462;-71
2023/01/18 08:20:51;;;;;;;12.07;3.35;;;9.00;63.60;;;;;;6232143;28;20021;-71
2023/01/18 08:23:52;;;;;;;3.03;2.13;;;9.00;63.60;;;;;;6247935;28;20370;-71
2023/01/18 08:26:53;;;;;;;6.68;2.80;;;9.00;63.80;;;;;;6249512;28;20160;-72
2023/01/18 08:29:54;;;;;;;6.40;2.95;;;9.00;63.80;;;;;;6249491;28;20462;-73
2023/01/18 08:32:57;;;;;;;5.65;3.40;;;9.00;64.00;;;;;;6248882;28;20049;-71
2023/01/18 08:35:58;;;;;;;3.38;2.63;;;9.00;63.70;;;;;;6233855;28;20037;-70
2023/01/18 08:38:59;;;;;;;5.30;2.70;;;9.10;63.70;;;;;;6253427;28;20029;-71
2023/01/18 08:42:00;;;;;;;8.13;3.20;;;9.20;63.70;;;;;;6258622;28;20417;-70
2023/01/18 08:45:00;;;;;;;8.10;2.20;;;9.20;63.40;;;;;;6257481;28;20037;-71
2023/01/18 08:48:06;;;;;;;4.38;1.98;;;9.30;63.20;;;;;;6250181;28;20041;-70
2023/01/18 08:51:07;;;;;;;3.35;2.47;;;9.30;63.10;;;;;;6248618;28;20041;-71
2023/01/18 08:54:08;;;;;;;6.13;2.33;;;9.30;63.00;;;;;;6249386;28;20486;-71
2023/01/18 08:57:09;;;;;;;6.70;2.30;;;9.20;63.00;;;;;;6248942;28;20041;-72
2023/01/18 09:00:11;;;;;;;11.57;3.60;;;9.20;63.10;;;;;;6248935;28;20025;-71
2023/01/18 09:03:12;;;;;;;6.88;3.63;;;9.30;63.30;;;;;;6249124;28;20048;-72
2023/01/18 09:06:15;;;;;;;3.78;2.45;;;9.30;63.10;;;;;;6247626;28;20365;-72
2023/01/18 09:09:16;;;;;;;7.30;2.90;;;9.30;63.10;;;;;;6247494;28;20049;-72
2023/01/18 09:12:17;;;;;;;5.50;2.70;;;9.40;63.20;;;;;;6247558;28;20036;-72
2023/01/18 09:15:18;;;;;;;8.57;4.07;;;9.50;63.10;;;;;;6231227;28;20061;-74
2023/01/18 09:18:19;;;;;;;6.63;3.42;;;9.60;62.90;;;;;;6247276;28;20065;-71
2023/01/18 09:21:19;;;;;;;7.20;3.17;;;9.80;62.80;;;;;;6247573;28;20084;-71
2023/01/18 09:24:20;;;;;;;5.80;3.22;;;9.90;62.50;;;;;;6247505;28;20034;-72
2023/01/18 09:27:21;;;;;;;5.47;3.60;;;10.10;62.40;;;;;;6247260;28;20033;-72
2023/01/18 09:30:22;;;;;;;5.40;2.53;;;10.20;61.70;;;;;;6247937;28;20048;-71
2023/01/18 09:33:23;;;;;;;6.95;2.97;;;10.30;61.20;;;;;;6248310;28;20037;-71
2023/01/18 09:36:28;;;;;;;8.68;3.30;;;10.30;60.70;;;;;;6246277;28;20029;-70
2023/01/18 09:39:29;;;;;;;6.25;3.05;;;10.30;60.50;;;;;;6246904;28;20029;-72
2023/01/18 09:42:39;;;;;;;6.78;2.53;;;10.40;60.60;;;;;;6247946;28;20036;-70
2023/01/18 09:45:43;;;;;;;7.13;2.67;;;10.50;60.60;;;;;;6247755;28;20036;-72
2023/01/18 09:48:47;;;;;;;4.80;2.53;;;10.70;60.30;;;;;;6247633;28;20143;-70
2023/01/18 09:51:58;;;;;;;2.40;2.00;;;10.80;60.00;;;;;;6248039;28;20025;-70
2023/01/18 09:55:05;;;;;;;3.03;1.73;;;11.00;59.50;;;;;;6247460;28;20102;-71
2023/01/18 09:58:12;;;;;;;2.08;1.35;;;11.10;59.00;;;;;;6247401;28;20485;-70
2023/01/18 10:01:26;;;;;;;1.38;0.35;;;11.10;58.30;;;;;;6246287;28;20659;-72
2023/01/18 10:04:35;;;;;;;0.90;0.38;;;11.00;57.50;;;;;;6246689;28;20025;-73
2023/01/18 10:07:47;;;;;;;0.57;0.40;;;10.90;57.00;;;;;;6247669;28;20048;-73
2023/01/18 10:11:17;;;;;;;0.17;0.10;;;10.80;56.50;;;;;;6246215;28;20120;-70
2023/01/18 10:14:31;;;;;;;0.30;0.20;;;10.60;56.30;;;;;;6245228;28;20099;-73
2023/01/18 10:17:35;;;;;;;2.40;0.50;;;10.40;56.40;;;;;;6246139;28;20047;-73
2023/01/18 10:20:57;;;;;;;0.93;0.43;;;10.10;56.70;;;;;;6229549;28;20120;-71
2023/01/18 10:24:23;;;;;;;0.60;0.50;;;10.00;57.50;;;;;;6245975;28;20025;-71
2023/01/18 10:27:30;;;;;;;0.30;0.20;;;9.80;57.80;;;;;;6229161;28;20029;-72
2023/01/18 10:30:54;;;;;;;0.35;0.20;;;9.70;58.20;;;;;;6245932;28;20030;-71
2023/01/18 10:33:58;;;;;;;2.65;1.48;;;9.70;58.40;;;;;;6247147;28;20030;-72
2023/01/18 10:37:14;;;;;;;1.58;0.65;;;9.60;58.50;;;;;;6245787;28;20025;-71
2023/01/18 10:40:15;;;;;;;0.90;0.60;;;9.60;58.70;;;;;;6247139;28;20029;-72
2023/01/18 10:43:19;;;;;;;0.60;0.40;;;9.60;58.80;;;;;;6246624;28;20477;-70
2023/01/18 10:46:20;;;;;;;2.00;0.50;;;9.60;58.80;;;;;;6245579;28;20547;-73
2023/01/18 10:49:42;;;;;;;4.15;0.90;;;9.60;58.80;;;;;;6245500;28;20029;-71
2023/01/18 10:52:43;;;;;;;2.35;0.77;;;9.70;58.90;;;;;;6245580;28;20286;-71
2023/01/18 10:56:19;;;;;;;4.85;0.90;;;9.80;58.90;;;;;;6246939;28;20034;-73
2023/01/18 10:59:36;;;;;;;2.05;0.93;;;9.80;59.00;;;;;;6227316;28;20040;-71
2023/01/18 11:02:38;;;;;;;1.45;1.00;;;9.80;59.20;;;;;;6211961;28;20045;-70
2023/01/18 11:05:44;;;;;;;1.60;0.90;;;9.90;59.30;;;;;;6244105;28;20042;-73
2023/01/18 11:08:46;;;;;;;1.20;0.93;;;10.00;59.30;;;;;;6243793;28;20061;-71
2023/01/18 11:15:14;;;;;;;1.23;0.75;;;10.20;58.90;;;;;;6220103;28;20049;-72
2023/01/18 11:18:15;;;;;;;3.70;0.50;;;10.20;58.60;;;;;;6203609;28;20479;-73
2023/01/18 11:21:16;;;;;;;0.52;0.40;;;10.10;58.20;;;;;;6213718;28;20049;-71
2023/01/18 11:24:23;;;;;;;0.40;0.38;;;10.00;57.90;;;;;;6231195;28;20045;-72
2023/01/18 11:27:30;;;;;;;1.58;0.98;;;9.80;57.90;;;;;;6203921;28;20033;-76
2023/01/18 11:30:32;;;;;;;0.65;0.60;;;9.60;57.90;;;;;;6203419;28;20040;-72
2023/01/18 11:33:35;;;;;;;0.70;0.40;;;9.40;58.30;;;;;;6219384;28;20455;-72
2023/01/18 11:36:45;;;;;;;2.83;0.77;;;9.20;58.70;;;;;;6221883;28;20108;-70
2023/01/18 11:39:46;;;;;;;0.70;0.50;;;8.70;58.80;;;;;;6221631;28;20029;-72
2023/01/18 11:42:50;;;;;;;1.60;0.98;;;8.40;59.50;;;;;;6221684;28;20033;-71
2023/01/18 11:46:43;;;;;;;1.92;1.08;;;8.30;60.10;;;;;;6220418;28;20044;-72
2023/01/18 11:50:08;;;;;;;1.00;0.90;;;8.20;61.00;;;;;;6219011;28;20065;-71
2023/01/18 11:53:15;;;;;;;1.48;0.88;;;8.10;61.40;;;;;;6195865;28;20053;-71
2023/01/18 11:56:44;;;;;;;1.73;1.00;;;8.10;61.60;;;;;;6239674;28;20481;-72
2023/01/18 11:59:46;;;;;;;1.23;1.13;;;8.10;61.80;;;;;;6245378;28;20045;-72
2023/01/18 12:03:01;;;;;;;1.85;1.15;;;8.20;61.90;;;;;;6247996;28;20520;-73
2023/01/18 12:06:16;;;;;;;8.88;1.33;;;8.10;61.70;;;;;;6247646;28;20053;-71
2023/01/18 12:09:34;;;;;;;1.02;0.93;;;8.10;61.80;;;;;;6231307;28;20033;-73
2023/01/18 12:13:17;;;;;;;1.05;0.68;;;8.10;62.00;;;;;;6231376;28;20512;-71
2023/01/18 12:16:56;;;;;;;0.32;0.32;;;8.00;61.90;;;;;;6247682;28;20026;-72
2023/01/18 12:20:25;;;;;;;0.38;0.22;;;7.90;62.10;;;;;;6198286;28;20038;-74
2023/01/18 12:23:45;;;;;;;0.93;0.57;;;7.80;62.50;;;;;;6110921;29;20050;-74
2023/01/18 12:26:59;;;;;;;1.05;0.60;;;7.60;62.70;;;;;;6088318;29;20099;-71
2023/01/18 12:30:28;;;;;;;0.30;0.30;;;7.50;63.20;;;;;;6079368;29;20112;-71
2023/01/18 12:33:53;;;;;;;1.05;0.55;;;7.30;63.50;;;;;;6079203;29;20085;-71
2023/01/18 12:37:07;;;;;;;0.20;0.20;;;7.10;64.10;;;;;;6079662;29;20115;-72
2023/01/18 12:40:16;;;;;;;0.30;0.30;;;6.80;64.70;;;;;;6079070;29;20092;-73
2023/01/18 12:43:41;;;;;;;0.45;0.13;;;6.70;65.50;;;;;;6079411;29;20045;-73
2023/01/18 12:47:10;;;;;;;2.65;0.45;;;6.50;66.10;;;;;;6078781;29;20044;-72
2023/01/18 12:50:18;;;;;;;0.52;0.40;;;6.40;66.60;;;;;;6055457;29;20049;-72
2023/01/18 12:53:37;;;;;;;0.30;0.30;;;6.20;67.00;;;;;;6055929;29;20049;-71
2023/01/18 12:56:42;;;;;;;0.57;0.57;;;6.20;67.60;;;;;;6082497;29;20429;-74
2023/01/18 12:59:54;;;;;;;0.98;0.60;;;6.20;67.80;;;;;;6118017;29;20107;-72
2023/01/18 13:02:56;;;;;;;0.50;0.32;;;6.20;68.00;;;;;;6160063;28;20062;-73
2023/01/18 13:05:59;;;;;;;1.42;1.02;;;6.20;68.00;;;;;;6189148;28;20033;-72
2023/01/18 13:09:05;;;;;;;2.53;0.80;;;6.20;67.90;;;;;;6172736;28;20138;-72
2023/01/18 13:12:08;;;;;;;1.65;0.52;;;6.20;68.00;;;;;;6156499;28;20482;-73
2023/01/18 13:15:39;;;;;;;0.45;0.45;;;6.10;67.90;;;;;;6173321;28;20447;-74
2023/01/18 13:18:51;;;;;;;2.22;0.75;;;6.00;67.80;;;;;;6156768;28;20030;-73
2023/01/18 13:22:07;;;;;;;0.85;0.45;;;5.90;68.10;;;;;;6172592;28;20483;-72
2023/01/18 13:25:30;;;;;;;0.65;0.50;;;5.80;68.50;;;;;;6172721;28;20129;-73
2023/01/18 13:28:30;;;;;;;0.60;0.60;;;5.70;68.90;;;;;;6248433;28;20421;-74
2023/01/18 13:31:32;;;;;;;1.02;0.93;;;5.70;69.10;;;;;;6247209;28;20089;-73
2023/01/18 13:34:35;;;;;;;1.23;0.70;;;5.70;69.10;;;;;;6248303;28;20032;-75
2023/01/18 13:37:44;;;;;;;3.28;0.77;;;5.70;69.80;;;;;;6247734;28;20026;-72
2023/01/18 13:41:01;;;;;;;2.70;0.95;;;5.70;69.10;;;;;;6248643;28;20029;-73
2023/01/18 13:44:05;;;;;;;0.50;0.50;;;5.70;68.90;;;;;;6248758;28;20033;-73
2023/01/18 13:47:34;;;;;;;14.32;1.13;;;5.70;68.90;;;;;;6249559;28;20057;-72
2023/01/18 13:50:39;;;;;;;0.80;0.47;;;5.70;69.10;;;;;;6253161;28;20056;-74
2023/01/18 13:53:50;;;;;;;1.85;0.65;;;5.70;69.20;;;;;;6251601;28;20029;-73
2023/01/18 13:57:15;;;;;;;1.20;0.77;;;5.70;69.10;;;;;;6221949;28;20095;-74
2023/01/18 14:00:27;;;;;;;0.95;0.80;;;5.70;68.90;;;;;;6244733;28;20029;-75
2023/01/18 14:03:38;;;;;;;0.68;0.68;;;5.70;69.20;;;;;;6248488;28;20064;-73
2023/01/18 14:06:42;;;;;;;1.25;0.75;;;5.70;69.30;;;;;;6250382;28;20029;-72
2023/01/18 14:09:46;;;;;;;0.50;0.45;;;5.70;69.30;;;;;;6262040;28;20029;-72
2023/01/18 14:12:50;;;;;;;0.32;0.30;;;5.80;69.30;;;;;;6259294;28;20493;-72
2023/01/18 14:15:52;;;;;;;0.73;0.30;;;5.70;69.40;;;;;;6248203;28;20078;-74
2023/01/18 14:18:59;;;;;;;0.63;0.57;;;5.70;69.80;;;;;;6246895;28;20033;-72
2023/01/18 14:22:13;;;;;;;1.63;0.80;;;5.70;69.40;;;;;;6247586;28;20116;-74
2023/01/18 14:25:42;;;;;;;0.30;0.30;;;5.60;69.40;;;;;;6246811;28;20037;-72
2023/01/18 14:28:47;;;;;;;0.35;0.35;;;5.50;69.60;;;;;;6247072;28;20394;-71
2023/01/18 14:31:52;;;;;;;1.15;0.80;;;5.50;70.00;;;;;;6230036;28;20116;-72
2023/01/18 14:34:58;;;;;;;0.77;0.52;;;5.40;70.10;;;;;;6247894;28;20052;-75
2023/01/18 14:38:13;;;;;;;0.93;0.80;;;5.40;70.60;;;;;;6247145;28;20067;-72
2023/01/18 14:41:16;;;;;;;0.30;0.30;;;5.40;70.70;;;;;;6246158;28;20116;-73
2023/01/18 14:44:39;;;;;;;1.55;0.90;;;5.40;70.70;;;;;;6245709;28;20030;-73
2023/01/18 14:47:40;;;;;;;0.90;0.60;;;5.40;70.90;;;;;;6245063;28;20506;-71
2023/01/18 14:50:45;;;;;;;0.98;0.60;;;5.40;71.00;;;;;;6245742;28;20022;-73
2023/01/18 14:53:56;;;;;;;1.45;1.27;;;5.50;70.90;;;;;;6247188;28;20533;-74
2023/01/18 14:57:08;;;;;;;1.73;1.38;;;5.50;70.90;;;;;;6246041;28;20041;-74
2023/01/18 15:00:17;;;;;;;4.03;1.40;;;5.50;70.90;;;;;;6246039;28;20041;-73
2023/01/18 15:03:27;;;;;;;3.80;1.63;;;5.40;71.00;;;;;;6245889;28;20473;-71
2023/01/18 15:06:34;;;;;;;2.15;1.08;;;5.40;71.20;;;;;;6247283;28;20489;-74
2023/01/18 15:09:41;;;;;;;5.00;3.03;;;5.40;71.30;;;;;;6245367;28;20029;-74
2023/01/18 15:12:47;;;;;;;1.15;0.85;;;5.40;71.40;;;;;;6245227;28;20486;-73
2023/01/18 15:15:48;;;;;;;1.30;1.20;;;5.50;71.60;;;;;;6245869;28;20030;-72
2023/01/18 15:18:51;;;;;;;5.30;2.25;;;5.50;71.60;;;;;;6245509;28;20387;-73
2023/01/18 15:21:52;;;;;;;2.38;1.67;;;5.60;71.60;;;;;;6246385;28;20033;-72
2023/01/18 15:24:56;;;;;;;2.78;1.80;;;5.50;71.60;;;;;;6245655;28;20056;-73
2023/01/18 15:28:00;;;;;;;2.15;1.55;;;5.60;71.80;;;;;;6246829;28;20044;-73
2023/01/18 15:31:14;;;;;;;4.03;1.58;;;5.70;71.70;;;;;;6247013;28;20033;-72
2023/01/18 15:34:17;;;;;;;2.47;1.90;;;5.70;71.50;;;;;;6247304;28;20104;-73
2023/01/18 15:37:23;;;;;;;3.15;1.75;;;5.70;71.40;;;;;;6233846;28;20108;-73
2023/01/18 15:40:27;;;;;;;4.13;1.77;;;5.70;71.50;;;;;;6252130;28;20434;-73
2023/01/18 15:43:40;;;;;;;2.83;1.77;;;5.70;71.50;;;;;;6251598;28;20033;-71
2023/01/18 15:46:42;;;;;;;2.53;1.45;;;5.70;71.60;;;;;;6251525;28;20048;-72
2023/01/18 15:49:47;;;;;;;3.53;1.88;;;5.70;71.70;;;;;;6233382;28;20220;-73
2023/01/18 15:53:05;;;;;;;4.90;2.05;;;5.70;71.70;;;;;;6250774;28;20033;-74
2023/01/18 15:56:18;;;;;;;2.50;1.27;;;5.70;71.60;;;;;;6249967;28;20044;-74
2023/01/18 15:59:25;;;;;;;4.85;1.75;;;5.60;71.40;;;;;;6250728;28;20021;-74
2023/01/18 16:02:26;;;;;;;4.88;1.55;;;5.60;71.40;;;;;;6249835;28;20366;-73
2023/01/18 16:05:27;;;;;;;2.85;2.15;;;5.80;71.30;;;;;;6249838;28;20057;-73
2023/01/18 16:08:28;;;;;;;11.88;2.03;;;5.70;70.90;;;;;;6250845;28;20454;-72
2023/01/18 16:11:31;;;;;;;4.03;1.98;;;5.70;70.50;;;;;;6249435;28;20048;-73
2023/01/18 16:14:35;;;;;;;4.60;2.22;;;5.70;70.20;;;;;;6249611;28;20029;-71
2023/01/18 16:17:36;;;;;;;3.10;2.08;;;5.70;69.40;;;;;;6249116;28;20532;-73
2023/01/18 16:20:37;;;;;;;10.05;2.20;;;5.70;69.10;;;;;;6248853;28;20030;-73
2023/01/18 16:23:43;;;;;;;5.90;2.42;;;5.70;68.70;;;;;;6249666;28;20112;-74
2023/01/18 16:26:44;;;;;;;5.88;2.67;;;5.70;68.40;;;;;;6232921;28;20045;-72
2023/01/18 16:29:51;;;;;;;16.40;3.78;;;5.80;68.10;;;;;;6249108;28;20030;-73
2023/01/18 16:32:52;;;;;;;4.22;2.45;;;5.80;67.80;;;;;;6250055;28;20417;-72
2023/01/18 16:35:53;;;;;;;2.95;1.85;;;5.80;67.20;;;;;;6249169;28;20060;-73
2023/01/18 16:38:54;;;;;;;5.63;1.88;;;5.90;67.00;;;;;;6249922;28;20084;-73
2023/01/18 16:41:56;;;;;;;9.38;2.63;;;5.90;66.90;;;;;;6250530;28;20381;-72
2023/01/18 16:44:57;;;;;;;5.13;3.03;;;6.00;66.60;;;;;;6249474;28;20091;-72
2023/01/18 16:47:58;;;;;;;5.28;1.67;;;6.10;66.30;;;;;;6249586;28;20104;-72
2023/01/18 16:51:00;;;;;;;2.78;1.80;;;6.10;65.70;;;;;;6231925;28;20469;-73